createdAt,value
2024-03-02T00:00:06.918Z,38.89
2024-03-02T00:01:07.017Z,38.94
2024-03-02T00:02:06.991Z,38.96
2024-03-02T00:03:07.025Z,38.90
2024-03-02T00:04:07.047Z,38.89
2024-03-02T00:05:07.083Z,38.86
2024-03-02T00:06:07.117Z,38.87
2024-03-02T00:07:07.158Z,38.91
2024-03-02T00:08:07.195Z,38.90
2024-03-02T00:09:07.215Z,38.97
2024-03-02T00:10:07.252Z,38.90
2024-03-02T00:11:07.303Z,38.90
2024-03-02T00:12:07.339Z,39.03
2024-03-02T00:13:07.366Z,38.95
2024-03-02T00:14:07.393Z,38.89
2024-03-02T00:15:07.427Z,38.93
2024-03-02T00:16:07.485Z,38.94
2024-03-02T00:17:07.500Z,38.90
2024-03-02T00:18:07.576Z,38.93
2024-03-02T00:19:07.642Z,38.91
2024-03-02T00:20:07.627Z,38.89
2024-03-02T00:21:07.635Z,38.89
2024-03-02T00:22:07.674Z,38.86
2024-03-02T00:23:07.716Z,38.92
2024-03-02T00:24:07.768Z,38.90
2024-03-02T00:25:07.760Z,38.89
2024-03-02T00:26:07.804Z,38.88
2024-03-02T00:27:07.849Z,38.98
2024-03-02T00:28:07.890Z,38.95
2024-03-02T00:29:07.923Z,38.93
2024-03-02T00:30:07.947Z,38.90
2024-03-02T00:31:07.978Z,38.84
2024-03-02T00:32:08.006Z,38.90
2024-03-02T00:33:08.070Z,38.92
2024-03-02T00:34:08.123Z,38.94
2024-03-02T00:35:08.107Z,38.91
2024-03-02T00:36:08.153Z,38.91
2024-03-02T00:37:08.176Z,38.93
2024-03-02T00:38:08.207Z,38.90
2024-03-02T00:39:08.240Z,38.86
2024-03-02T00:40:08.303Z,38.90
2024-03-02T00:41:08.313Z,38.97
2024-03-02T00:42:08.362Z,38.96
2024-03-02T00:43:08.400Z,38.91
2024-03-02T00:44:08.458Z,38.91
2024-03-02T00:45:08.489Z,38.91
2024-03-02T00:46:08.523Z,38.87
2024-03-02T00:47:08.557Z,38.90
2024-03-02T00:48:08.602Z,38.93
2024-03-02T00:49:08.635Z,38.86
2024-03-02T00:50:16.344Z,38.86
2024-03-02T00:51:09.670Z,38.89
2024-03-02T00:52:08.698Z,38.91
2024-03-02T00:53:08.696Z,38.89
2024-03-02T00:54:08.716Z,38.82
2024-03-02T00:55:08.692Z,38.88
2024-03-02T00:56:08.718Z,38.86
2024-03-02T00:57:08.688Z,38.84
2024-03-02T00:58:08.688Z,38.85
2024-03-02T00:59:08.697Z,38.83
2024-03-02T01:00:13.756Z,38.85
2024-03-02T01:01:08.954Z,38.85
2024-03-02T01:02:08.698Z,38.86
2024-03-02T01:03:08.699Z,38.92
2024-03-02T01:04:08.712Z,38.94
2024-03-02T01:05:08.722Z,38.84
2024-03-02T01:06:08.726Z,38.89
2024-03-02T01:07:08.709Z,38.86
2024-03-02T01:08:08.714Z,38.90
2024-03-02T01:09:08.707Z,38.91
2024-03-02T01:10:08.721Z,38.94
2024-03-02T01:11:08.767Z,38.90
2024-03-02T01:12:08.827Z,38.88
2024-03-02T01:13:08.833Z,38.86
2024-03-02T01:14:08.880Z,38.92
2024-03-02T01:15:08.908Z,38.88
2024-03-02T01:16:08.956Z,38.91
2024-03-02T01:17:08.993Z,38.93
2024-03-02T01:18:09.050Z,38.92
2024-03-02T01:19:09.213Z,38.85
2024-03-02T01:20:09.125Z,38.88
2024-03-02T01:21:09.161Z,38.91
2024-03-02T01:22:09.210Z,38.83
2024-03-02T01:23:09.241Z,38.83
2024-03-02T01:24:09.286Z,38.86
2024-03-02T01:25:09.317Z,38.83
2024-03-02T01:26:09.346Z,38.85
2024-03-02T01:27:09.372Z,38.90
2024-03-02T01:28:09.490Z,38.87
2024-03-02T01:29:09.463Z,38.85
2024-03-02T01:30:09.537Z,38.83
2024-03-02T01:31:09.549Z,38.89
2024-03-02T01:32:09.609Z,38.92
2024-03-02T01:33:09.684Z,38.92
2024-03-02T01:34:09.718Z,38.89
2024-03-02T01:35:09.705Z,38.86
2024-03-02T01:36:09.887Z,38.93
2024-03-02T01:37:09.807Z,38.89
2024-03-02T01:38:09.820Z,38.90
2024-03-02T01:39:09.857Z,38.84
2024-03-02T01:40:09.912Z,38.81
2024-03-02T01:41:09.967Z,38.85
2024-03-02T01:42:09.994Z,38.83
2024-03-02T01:43:10.034Z,38.81
2024-03-02T01:44:10.068Z,38.80
2024-03-02T01:45:10.139Z,38.77
2024-03-02T01:46:10.146Z,38.87
2024-03-02T01:47:10.179Z,38.88
2024-03-02T01:48:10.321Z,38.84
2024-03-02T01:49:10.266Z,38.88
2024-03-02T01:50:10.310Z,38.84
2024-03-02T01:51:10.350Z,38.83
2024-03-02T01:52:10.394Z,38.81
2024-03-02T01:53:10.431Z,38.81
2024-03-02T01:54:10.478Z,38.83
2024-03-02T01:55:10.514Z,38.86
2024-03-02T01:56:10.554Z,38.80
2024-03-02T01:57:10.580Z,38.78
2024-03-02T01:58:10.659Z,38.86
2024-03-02T01:59:10.675Z,38.87
2024-03-02T02:00:10.758Z,38.91
2024-03-02T02:01:10.805Z,38.80
2024-03-02T02:02:10.809Z,38.79
2024-03-02T02:03:10.841Z,38.81
2024-03-02T02:04:10.905Z,38.83
2024-03-02T02:05:10.937Z,38.80
2024-03-02T02:06:11.023Z,38.78
2024-03-02T02:07:11.019Z,38.78
2024-03-02T02:08:11.089Z,38.82
2024-03-02T02:09:11.117Z,38.77
2024-03-02T02:10:11.191Z,38.83
2024-03-02T02:11:11.223Z,38.85
2024-03-02T02:12:11.267Z,38.82
2024-03-02T02:13:11.290Z,38.77
2024-03-02T02:14:11.354Z,38.79
2024-03-02T02:15:11.398Z,38.81
2024-03-02T02:16:11.429Z,38.83
2024-03-02T02:17:11.480Z,38.82
2024-03-02T02:18:11.600Z,38.81
2024-03-02T02:19:11.564Z,38.78
2024-03-02T02:20:11.632Z,38.82
2024-03-02T02:21:11.650Z,38.76
2024-03-02T02:22:11.720Z,38.85
2024-03-02T02:23:11.764Z,38.83
2024-03-02T02:24:11.790Z,38.87
2024-03-02T02:25:11.872Z,38.84
2024-03-02T02:26:11.913Z,38.82
2024-03-02T02:27:11.954Z,38.82
2024-03-02T02:28:12.009Z,38.84
2024-03-02T02:29:12.050Z,38.78
2024-03-02T02:30:12.090Z,38.74
2024-03-02T02:31:12.174Z,38.82
2024-03-02T02:32:12.193Z,38.80
2024-03-02T02:33:12.287Z,38.85
2024-03-02T02:34:12.324Z,38.84
2024-03-02T02:35:12.334Z,38.85
2024-03-02T02:36:12.400Z,38.79
2024-03-02T02:37:12.441Z,38.79
2024-03-02T02:38:12.474Z,38.77
2024-03-02T02:39:12.534Z,38.82
2024-03-02T02:40:12.556Z,38.83
2024-03-02T02:41:17.126Z,38.77
2024-03-02T02:42:12.614Z,38.76
2024-03-02T02:43:12.616Z,38.72
2024-03-02T02:44:12.620Z,38.76
2024-03-02T02:45:12.621Z,38.82
2024-03-02T02:46:12.654Z,38.78
2024-03-02T02:47:12.639Z,38.79
2024-03-02T02:48:12.657Z,38.76
2024-03-02T02:49:12.621Z,38.79
2024-03-02T02:50:12.620Z,38.75
2024-03-02T02:51:12.670Z,38.80
2024-03-02T02:52:12.622Z,38.76
2024-03-02T02:53:12.628Z,38.74
2024-03-02T02:54:12.638Z,38.78
2024-03-02T02:55:12.711Z,38.78
2024-03-02T02:56:12.650Z,38.69
2024-03-02T02:57:22.168Z,38.84
2024-03-02T02:58:12.635Z,38.84
2024-03-02T02:59:12.638Z,38.82
2024-03-02T03:00:12.644Z,38.81
2024-03-02T03:01:12.769Z,38.80
2024-03-02T03:02:12.645Z,38.75
2024-03-02T03:03:12.670Z,38.79
2024-03-02T03:04:12.646Z,38.79
2024-03-02T03:05:12.673Z,38.79
2024-03-02T03:06:12.659Z,38.72
2024-03-02T03:07:12.666Z,38.71
2024-03-02T03:08:12.655Z,38.76
2024-03-02T03:09:12.662Z,38.76
2024-03-02T03:10:12.679Z,38.74
2024-03-02T03:11:12.715Z,38.80
2024-03-02T03:12:12.657Z,38.78
2024-03-02T03:13:12.681Z,38.77
2024-03-02T03:14:12.665Z,38.70
2024-03-02T03:15:12.705Z,38.70
2024-03-02T03:16:12.672Z,38.65
2024-03-02T03:17:12.667Z,38.76
2024-03-02T03:18:12.727Z,38.68
2024-03-02T03:19:12.670Z,38.70
2024-03-02T03:20:12.689Z,38.71
2024-03-02T03:21:12.671Z,38.75
2024-03-02T03:22:12.673Z,38.72
2024-03-02T03:23:22.248Z,38.74
2024-03-02T03:24:12.674Z,38.67
2024-03-02T03:25:12.680Z,38.68
2024-03-02T03:26:12.674Z,38.71
2024-03-02T03:27:12.678Z,38.72
2024-03-02T03:28:12.663Z,38.74
2024-03-02T03:29:13.027Z,38.72
2024-03-02T03:30:12.690Z,38.78
2024-03-02T03:31:12.684Z,38.74
2024-03-02T03:32:12.686Z,38.77
2024-03-02T03:33:12.697Z,38.74
2024-03-02T03:34:12.694Z,38.75
2024-03-02T03:35:12.804Z,38.73
2024-03-02T03:36:12.685Z,38.70
2024-03-02T03:37:12.697Z,38.71
2024-03-02T03:38:12.688Z,38.73
2024-03-02T03:39:12.703Z,38.73
2024-03-02T03:40:12.705Z,38.67
2024-03-02T03:41:12.709Z,38.69
2024-03-02T03:42:12.696Z,38.72
2024-03-02T03:43:12.711Z,38.69
2024-03-02T03:44:12.691Z,38.69
2024-03-02T03:45:12.704Z,38.74
2024-03-02T03:46:12.694Z,38.70
2024-03-02T03:47:12.718Z,38.66
2024-03-02T03:48:12.774Z,38.62
2024-03-02T03:49:12.718Z,38.69
2024-03-02T03:50:12.703Z,38.76
2024-03-02T03:51:12.725Z,38.72
2024-03-02T03:52:12.709Z,38.76
2024-03-02T03:53:12.731Z,38.71
2024-03-02T03:54:12.737Z,38.58
2024-03-02T03:55:12.722Z,38.58
2024-03-02T03:56:12.711Z,38.60
2024-03-02T03:57:12.724Z,38.65
2024-03-02T03:58:12.714Z,38.72
2024-03-02T03:59:12.802Z,38.65
2024-03-02T04:00:12.841Z,38.66
2024-03-02T04:01:12.996Z,38.67
2024-03-02T04:02:12.990Z,38.75
2024-03-02T04:03:13.029Z,38.72
2024-03-02T04:04:13.096Z,38.73
2024-03-02T04:05:13.178Z,38.81
2024-03-02T04:06:13.212Z,38.71
2024-03-02T04:07:13.266Z,38.70
2024-03-02T04:08:13.325Z,38.74
2024-03-02T04:09:13.368Z,38.69
2024-03-02T04:10:13.437Z,38.76
2024-03-02T04:11:13.561Z,38.76
2024-03-02T04:12:13.557Z,38.77
2024-03-02T04:13:13.617Z,38.66
2024-03-02T04:14:13.686Z,38.62
2024-03-02T04:15:13.729Z,38.64
2024-03-02T04:16:13.801Z,38.67
2024-03-02T04:17:13.860Z,38.67
2024-03-02T04:18:13.909Z,38.67
2024-03-02T04:19:13.987Z,38.61
2024-03-02T04:20:14.033Z,38.67
2024-03-02T04:21:14.121Z,38.70
2024-03-02T04:22:18.870Z,38.67
2024-03-02T04:23:15.192Z,38.68
2024-03-02T04:24:14.182Z,38.65
2024-03-02T04:25:14.169Z,38.68
2024-03-02T04:26:14.167Z,38.71
2024-03-02T04:27:14.189Z,38.74
2024-03-02T04:28:14.183Z,38.72
2024-03-02T04:29:14.182Z,38.67
2024-03-02T04:30:14.182Z,38.62
2024-03-02T04:31:14.188Z,38.63
2024-03-02T04:32:14.274Z,38.66
2024-03-02T04:33:14.353Z,38.61
2024-03-02T04:34:14.401Z,38.71
2024-03-02T04:35:14.488Z,38.76
2024-03-02T04:36:14.519Z,38.71
2024-03-02T04:37:14.584Z,38.74
2024-03-02T04:38:14.638Z,38.74
2024-03-02T04:39:14.715Z,38.69
2024-03-02T04:40:14.773Z,38.59
2024-03-02T04:41:14.858Z,38.58
2024-03-02T04:42:14.932Z,38.67
2024-03-02T04:43:22.619Z,38.73
2024-03-02T04:44:22.603Z,38.62
2024-03-02T04:45:22.676Z,38.64
2024-03-02T04:46:22.617Z,38.68
2024-03-02T04:47:22.622Z,38.68
2024-03-02T04:48:22.666Z,38.59
2024-03-02T04:49:22.675Z,38.69
2024-03-02T04:50:22.632Z,38.60
2024-03-02T04:51:22.649Z,38.65
2024-03-02T04:52:22.644Z,38.60
2024-03-02T04:53:22.630Z,38.66
2024-03-02T04:54:22.646Z,38.69
2024-03-02T04:55:22.642Z,38.53
2024-03-02T04:56:22.634Z,38.59
2024-03-02T04:57:22.675Z,38.61
2024-03-02T04:58:22.621Z,38.69
2024-03-02T04:59:22.641Z,38.61
2024-03-02T05:00:22.682Z,38.62
2024-03-02T05:01:22.769Z,38.58
2024-03-02T05:02:22.642Z,38.65
2024-03-02T05:03:22.668Z,38.59
2024-03-02T05:04:22.635Z,38.59
2024-03-02T05:05:22.662Z,38.58
2024-03-02T05:06:22.651Z,38.58
2024-03-02T05:07:22.690Z,38.51
2024-03-02T05:08:22.657Z,38.57
2024-03-02T05:09:22.772Z,38.53
2024-03-02T05:10:22.665Z,38.62
2024-03-02T05:11:22.786Z,38.54
2024-03-02T05:12:22.664Z,38.56
2024-03-02T05:13:22.653Z,38.62
2024-03-02T05:14:22.651Z,38.62
2024-03-02T05:15:22.730Z,38.67
2024-03-02T05:16:22.647Z,38.66
2024-03-02T05:17:22.680Z,38.66
2024-03-02T05:18:22.708Z,38.55
2024-03-02T05:19:22.668Z,38.53
2024-03-02T05:20:22.653Z,38.53
2024-03-02T05:21:22.697Z,38.57
2024-03-02T05:22:22.684Z,38.60
2024-03-02T05:23:22.756Z,38.59
2024-03-02T05:24:22.852Z,38.55
2024-03-02T05:25:22.890Z,38.60
2024-03-02T05:26:22.949Z,38.61
2024-03-02T05:27:23.025Z,38.61
2024-03-02T05:28:23.071Z,38.54
2024-03-02T05:29:23.150Z,38.59
2024-03-02T05:30:23.245Z,38.58
2024-03-02T05:31:23.294Z,38.62
2024-03-02T05:32:23.347Z,38.63
2024-03-02T05:33:23.483Z,38.52
2024-03-02T05:34:23.544Z,38.50
2024-03-02T05:35:23.585Z,38.53
2024-03-02T05:36:23.648Z,38.58
2024-03-02T05:37:23.728Z,38.56
2024-03-02T05:38:23.771Z,38.55
2024-03-02T05:39:23.856Z,38.66
2024-03-02T05:40:24.953Z,38.52
2024-03-02T05:41:23.976Z,38.55
2024-03-02T05:42:24.088Z,38.56
2024-03-02T05:43:24.132Z,38.61
2024-03-02T05:44:24.193Z,38.56
2024-03-02T05:45:24.964Z,38.57
2024-03-02T05:46:24.315Z,38.55
2024-03-02T05:47:24.428Z,38.51
2024-03-02T05:48:24.500Z,38.55
2024-03-02T05:49:24.535Z,38.54
2024-03-02T05:50:24.605Z,38.55
2024-03-02T05:51:24.684Z,38.52
2024-03-02T05:52:24.757Z,38.55
2024-03-02T05:53:24.810Z,38.50
2024-03-02T05:54:24.874Z,38.53
2024-03-02T05:55:24.921Z,38.49
2024-03-02T05:56:24.987Z,38.55
2024-03-02T05:57:25.075Z,38.63
2024-03-02T05:58:25.132Z,38.59
2024-03-02T05:59:25.198Z,38.53
2024-03-02T06:00:25.295Z,38.53
2024-03-02T06:01:25.422Z,38.55
2024-03-02T06:02:25.417Z,38.53
2024-03-02T06:03:25.527Z,38.52
2024-03-02T06:04:25.548Z,38.52
2024-03-02T06:05:25.624Z,38.52
2024-03-02T06:06:25.728Z,38.63
2024-03-02T06:07:25.754Z,38.58
2024-03-02T06:08:25.815Z,38.54
2024-03-02T06:09:26.017Z,38.50
2024-03-02T06:10:26.020Z,38.55
2024-03-02T06:11:26.096Z,38.60
2024-03-02T06:12:26.137Z,38.50
2024-03-02T06:13:26.154Z,38.47
2024-03-02T06:14:26.211Z,38.45
2024-03-02T06:15:26.299Z,38.46
2024-03-02T06:16:26.462Z,38.45
2024-03-02T06:17:26.480Z,38.51
2024-03-02T06:18:26.522Z,38.55
2024-03-02T06:19:26.564Z,38.47
2024-03-02T06:20:26.661Z,38.49
2024-03-02T06:21:26.735Z,38.41
2024-03-02T06:22:26.771Z,38.47
2024-03-02T06:23:26.847Z,38.48
2024-03-02T06:24:26.992Z,38.60
2024-03-02T06:25:26.990Z,38.52
2024-03-02T06:26:27.046Z,38.52
2024-03-02T06:27:27.135Z,38.56
2024-03-02T06:28:27.206Z,38.53
2024-03-02T06:29:27.260Z,38.50
2024-03-02T06:30:27.373Z,38.51
2024-03-02T06:31:27.433Z,38.47
2024-03-02T06:32:27.522Z,38.49
2024-03-02T06:33:27.596Z,38.50
2024-03-02T06:34:27.615Z,38.45
2024-03-02T06:35:27.689Z,38.47
2024-03-02T06:36:27.780Z,38.47
2024-03-02T06:37:27.808Z,38.46
2024-03-02T06:38:27.864Z,38.47
2024-03-02T06:39:28.010Z,38.49
2024-03-02T06:40:28.021Z,38.44
2024-03-02T06:41:28.067Z,38.44
2024-03-02T06:42:28.198Z,38.43
2024-03-02T06:43:28.206Z,38.49
2024-03-02T06:44:28.247Z,38.49
2024-03-02T06:45:28.346Z,38.50
2024-03-02T06:46:28.438Z,38.45
2024-03-02T06:47:28.546Z,38.42
2024-03-02T06:48:28.544Z,38.52
2024-03-02T06:49:28.623Z,38.49
2024-03-02T06:50:28.665Z,38.45
2024-03-02T06:51:28.772Z,38.45
2024-03-02T06:52:28.783Z,38.43
2024-03-02T06:53:28.869Z,38.43
2024-03-02T06:54:28.935Z,38.45
2024-03-02T06:55:29.010Z,38.39
2024-03-02T06:56:29.056Z,38.39
2024-03-02T06:57:29.150Z,38.40
2024-03-02T06:58:29.205Z,38.42
2024-03-02T06:59:29.266Z,38.48
2024-03-02T07:00:29.389Z,38.40
2024-03-02T07:01:29.445Z,38.44
2024-03-02T07:02:29.472Z,38.47
2024-03-02T07:03:29.547Z,38.43
2024-03-02T07:04:29.603Z,38.49
2024-03-02T07:05:29.694Z,38.47
2024-03-02T07:06:29.770Z,38.46
2024-03-02T07:07:29.835Z,38.41
2024-03-02T07:08:29.882Z,38.45
2024-03-02T07:09:29.963Z,38.46
2024-03-02T07:10:30.041Z,38.46
2024-03-02T07:11:30.097Z,38.43
2024-03-02T07:12:30.169Z,38.36
2024-03-02T07:13:30.221Z,38.41
2024-03-02T07:14:30.284Z,38.37
2024-03-02T07:15:30.486Z,38.43
2024-03-02T07:16:30.417Z,38.40
2024-03-02T07:17:30.467Z,38.37
2024-03-02T07:18:30.546Z,38.36
2024-03-02T07:19:30.600Z,38.34
2024-03-02T07:20:30.657Z,38.35
2024-03-02T07:21:30.779Z,38.38
2024-03-02T07:22:30.791Z,38.30
2024-03-02T07:23:30.875Z,38.34
2024-03-02T07:24:30.931Z,38.32
2024-03-02T07:27:31.008Z,38.29
2024-03-02T07:28:30.981Z,38.36
2024-03-02T07:29:30.993Z,38.41
2024-03-02T07:30:33.329Z,38.42
2024-03-02T07:31:31.003Z,38.35
2024-03-02T07:32:31.046Z,38.34
2024-03-02T07:33:31.033Z,38.35
2024-03-02T07:34:31.006Z,38.30
2024-03-02T07:35:31.015Z,38.29
2024-03-02T07:36:31.018Z,38.32
2024-03-02T07:37:30.998Z,38.35
2024-03-02T07:38:31.012Z,38.35
2024-03-02T07:39:31.052Z,38.32
2024-03-02T07:40:31.011Z,38.33
2024-03-02T07:41:31.024Z,38.28
2024-03-02T07:42:31.029Z,38.28
2024-03-02T07:43:31.002Z,38.31
2024-03-02T07:44:31.018Z,38.33
2024-03-02T07:45:31.048Z,38.30
2024-03-02T07:46:31.018Z,38.29
2024-03-02T07:47:31.010Z,38.30
2024-03-02T07:48:31.031Z,38.31
2024-03-02T07:49:31.031Z,38.34
2024-03-02T07:50:31.039Z,38.31
2024-03-02T07:51:31.039Z,38.28
2024-03-02T07:52:31.027Z,38.31
2024-03-02T07:53:31.018Z,38.34
2024-03-02T07:54:31.030Z,38.33
2024-03-02T07:55:31.022Z,38.28
2024-03-02T07:56:31.025Z,38.27
2024-03-02T07:57:31.061Z,38.27
2024-03-02T07:58:31.029Z,38.23
2024-03-02T07:59:31.012Z,38.25
2024-03-02T08:00:31.042Z,38.26
2024-03-02T08:01:31.081Z,38.24
2024-03-02T08:02:31.035Z,38.25
2024-03-02T08:03:31.056Z,38.25
2024-03-02T08:04:31.049Z,38.20
2024-03-02T08:05:31.020Z,38.22
2024-03-02T08:06:31.069Z,38.16
2024-03-02T08:07:31.070Z,38.13
2024-03-02T08:08:31.134Z,38.18
2024-03-02T08:09:31.206Z,38.20
2024-03-02T08:10:36.207Z,38.17
2024-03-02T08:11:31.273Z,38.12
2024-03-02T08:12:31.268Z,38.11
2024-03-02T08:13:31.241Z,38.10
2024-03-02T08:14:31.263Z,38.12
2024-03-02T08:15:31.293Z,38.14
2024-03-02T08:16:31.270Z,38.14
2024-03-02T08:17:31.836Z,38.07
2024-03-02T08:18:31.300Z,38.10
2024-03-02T08:19:31.338Z,38.06
2024-03-02T08:20:31.399Z,38.08
2024-03-02T08:21:31.479Z,38.07
2024-03-02T08:22:31.514Z,38.08
2024-03-02T08:23:31.545Z,38.12
2024-03-02T08:24:31.685Z,38.08
2024-03-02T08:25:31.706Z,38.06
2024-03-02T08:26:31.708Z,38.10
2024-03-02T08:27:31.823Z,38.08
2024-03-02T08:28:31.811Z,38.06
2024-03-02T08:29:31.853Z,38.09
2024-03-02T08:30:31.947Z,38.07
2024-03-02T08:31:31.951Z,38.02
2024-03-02T08:32:32.048Z,38.04
2024-03-02T08:33:33.474Z,38.03
2024-03-02T08:34:32.111Z,38.04
2024-03-02T08:35:32.214Z,38.00
2024-03-02T08:36:32.329Z,37.99
2024-03-02T08:37:32.284Z,37.98
2024-03-02T08:38:32.321Z,37.92
2024-03-02T08:39:32.399Z,37.93
2024-03-02T08:40:32.446Z,37.96
2024-03-02T08:41:32.451Z,37.93
2024-03-02T08:42:32.528Z,37.95
2024-03-02T08:43:32.525Z,37.95
2024-03-02T08:44:32.545Z,37.92
2024-03-02T08:45:32.817Z,37.93
2024-03-02T08:46:32.634Z,37.92
2024-03-02T08:47:32.714Z,37.93
2024-03-02T08:48:32.774Z,37.89
2024-03-02T08:49:32.775Z,37.92
2024-03-02T08:50:36.384Z,37.89
2024-03-02T08:51:32.832Z,37.94
2024-03-02T08:52:32.807Z,37.91
2024-03-02T08:53:32.809Z,37.89
2024-03-02T08:54:32.874Z,37.88
2024-03-02T08:55:32.815Z,37.88
2024-03-02T08:56:32.902Z,37.88
2024-03-02T08:57:32.892Z,37.88
2024-03-02T08:58:32.813Z,37.85
2024-03-02T08:59:32.822Z,37.85
2024-03-02T09:00:32.922Z,37.84
2024-03-02T09:01:32.894Z,37.82
2024-03-02T09:02:32.811Z,37.83
2024-03-02T09:03:32.847Z,37.84
2024-03-02T09:04:35.111Z,37.82
2024-03-02T09:05:32.835Z,37.84
2024-03-02T09:06:32.843Z,37.83
2024-03-02T09:07:32.807Z,37.81
2024-03-02T09:08:32.823Z,37.81
2024-03-02T09:09:32.842Z,37.79
2024-03-02T09:10:32.837Z,37.79
2024-03-02T09:11:33.411Z,37.81
2024-03-02T09:12:32.857Z,37.79
2024-03-02T09:13:32.832Z,37.78
2024-03-02T09:14:32.841Z,37.79
2024-03-02T09:15:34.856Z,37.78
2024-03-02T09:16:43.579Z,37.87
2024-03-02T09:17:43.624Z,37.81
2024-03-02T09:18:43.610Z,37.80
2024-03-02T09:19:43.573Z,37.79
2024-03-02T09:20:43.604Z,37.78
2024-03-02T09:21:43.629Z,37.60
2024-03-02T09:22:43.581Z,37.47
2024-03-02T09:23:43.575Z,37.34
2024-03-02T09:24:43.609Z,37.29
2024-03-02T09:25:43.589Z,37.22
2024-03-02T09:26:43.633Z,37.14
2024-03-02T09:27:43.619Z,37.09
2024-03-02T09:28:43.591Z,37.01
2024-03-02T09:29:43.601Z,36.91
2024-03-02T09:30:43.628Z,36.81
2024-03-02T09:31:43.628Z,36.74
2024-03-02T09:32:43.617Z,36.66
2024-03-02T09:33:43.690Z,36.67
2024-03-02T09:34:43.594Z,36.66
2024-03-02T09:35:43.605Z,36.58
2024-03-02T09:36:43.600Z,36.51
2024-03-02T09:37:43.597Z,36.38
2024-03-02T09:38:43.601Z,36.33
2024-03-02T09:39:43.615Z,36.28
2024-03-02T09:40:43.620Z,36.16
2024-03-02T09:41:43.605Z,36.09
2024-03-02T09:42:43.639Z,36.03
2024-03-02T09:43:43.602Z,35.99
2024-03-02T09:44:43.610Z,35.97
2024-03-02T09:45:43.641Z,35.87
2024-03-02T09:46:43.623Z,35.81
2024-03-02T09:47:43.637Z,35.75
2024-03-02T09:48:43.649Z,35.65
2024-03-02T09:49:43.623Z,35.56
2024-03-02T09:50:43.628Z,35.56
2024-03-02T09:51:43.715Z,35.55
2024-03-02T09:52:43.624Z,35.48
2024-03-02T09:53:43.620Z,35.33
2024-03-02T09:54:43.650Z,35.42
2024-03-02T09:55:43.637Z,35.30
2024-03-02T09:56:43.649Z,35.19
2024-03-02T09:57:43.657Z,35.15
2024-03-02T09:58:43.637Z,35.14
2024-03-02T09:59:43.644Z,35.17
2024-03-02T10:00:43.744Z,35.11
2024-03-02T10:01:43.696Z,35.03
2024-03-02T10:02:43.723Z,34.98
2024-03-02T10:03:43.707Z,35.08
2024-03-02T10:04:43.663Z,34.90
2024-03-02T10:05:43.678Z,34.88
2024-03-02T10:06:43.670Z,34.91
2024-03-02T10:07:43.640Z,34.97
2024-03-02T10:08:43.727Z,34.87
2024-03-02T10:09:43.800Z,34.75
2024-03-02T10:10:43.907Z,34.75
2024-03-02T10:11:43.895Z,34.70
2024-03-02T10:12:43.979Z,34.74
2024-03-02T10:13:43.974Z,34.60
2024-03-02T10:14:44.042Z,34.54
2024-03-02T10:15:49.138Z,34.60
2024-03-02T10:16:44.072Z,34.50
2024-03-02T10:17:44.078Z,34.51
2024-03-02T10:18:44.115Z,34.46
2024-03-02T10:19:44.081Z,34.40
2024-03-02T10:20:44.084Z,34.42
2024-03-02T10:21:44.125Z,34.42
2024-03-02T10:22:44.080Z,34.46
2024-03-02T10:23:44.079Z,34.47
2024-03-02T10:24:44.129Z,34.31
2024-03-02T10:25:51.655Z,34.35
2024-03-02T10:26:45.120Z,34.37
2024-03-02T10:27:44.129Z,34.27
2024-03-02T10:28:44.104Z,34.31
2024-03-02T10:29:44.080Z,34.41
2024-03-02T10:30:44.124Z,34.24
2024-03-02T10:31:44.129Z,34.16
2024-03-02T10:32:44.156Z,34.19
2024-03-02T10:33:44.106Z,34.13
2024-03-02T10:34:44.096Z,34.07
2024-03-02T10:35:44.095Z,34.08
2024-03-02T10:36:44.126Z,34.01
2024-03-02T10:37:44.099Z,33.93
2024-03-02T10:38:44.109Z,33.93
2024-03-02T10:39:44.199Z,33.90
2024-03-02T10:40:44.096Z,33.93
2024-03-02T10:41:44.095Z,33.84
2024-03-02T10:42:44.114Z,33.88
2024-03-02T10:43:44.114Z,33.92
2024-03-02T10:44:44.187Z,33.81
2024-03-02T10:45:44.208Z,33.83
2024-03-02T10:46:44.132Z,33.81
2024-03-02T10:47:44.123Z,33.86
2024-03-02T10:48:44.167Z,33.72
2024-03-02T10:49:44.158Z,33.92
2024-03-02T10:50:44.259Z,33.80
2024-03-02T10:51:44.412Z,33.79
2024-03-02T10:52:44.396Z,33.67
2024-03-02T10:53:44.471Z,33.66
2024-03-02T10:54:44.575Z,33.65
2024-03-02T10:55:44.643Z,33.64
2024-03-02T10:56:44.676Z,33.61
2024-03-02T10:57:44.811Z,33.60
2024-03-02T10:58:44.966Z,33.65
2024-03-02T10:59:44.881Z,33.57
2024-03-02T11:00:45.048Z,33.78
2024-03-02T11:01:45.038Z,33.57
2024-03-02T11:02:45.078Z,33.58
2024-03-02T11:03:45.162Z,33.59
2024-03-02T11:04:45.213Z,33.59
2024-03-02T11:05:45.247Z,33.56
2024-03-02T11:06:45.361Z,33.62
2024-03-02T11:07:45.399Z,33.61
2024-03-02T11:08:45.449Z,33.59
2024-03-02T11:09:45.593Z,33.52
2024-03-02T11:10:45.576Z,33.54
2024-03-02T11:11:45.619Z,33.54
2024-03-02T11:12:45.697Z,33.58
2024-03-02T11:13:45.737Z,33.56
2024-03-02T11:14:45.791Z,33.59
2024-03-02T11:15:45.858Z,33.54
2024-03-02T11:16:45.906Z,33.54
2024-03-02T11:17:45.947Z,33.49
2024-03-02T11:18:46.065Z,33.59
2024-03-02T11:19:46.059Z,33.51
2024-03-02T11:20:46.150Z,33.51
2024-03-02T11:21:46.234Z,33.53
2024-03-02T11:22:46.223Z,33.55
2024-03-02T11:23:46.258Z,33.53
2024-03-02T11:24:46.396Z,33.54
2024-03-02T11:25:46.384Z,33.48
2024-03-02T11:26:46.445Z,33.51
2024-03-02T11:27:46.896Z,33.51
2024-03-02T11:28:46.507Z,33.47
2024-03-02T11:29:46.568Z,33.57
2024-03-02T11:30:46.643Z,33.50
2024-03-02T11:31:46.618Z,33.42
2024-03-02T11:32:46.735Z,33.52
2024-03-02T11:33:46.713Z,33.43
2024-03-02T11:34:46.741Z,33.49
2024-03-02T11:35:46.802Z,33.44
2024-03-02T11:36:46.839Z,33.42
2024-03-02T11:37:46.854Z,33.72
2024-03-02T11:38:46.929Z,33.45
2024-03-02T11:39:47.018Z,33.52
2024-03-02T11:40:47.003Z,33.46
2024-03-02T11:41:48.809Z,33.47
2024-03-02T11:42:47.083Z,33.44
2024-03-02T11:43:47.082Z,33.48
2024-03-02T11:44:47.089Z,33.45
2024-03-02T11:45:47.151Z,33.46
2024-03-02T11:46:47.189Z,33.52
2024-03-02T11:47:47.198Z,33.58
2024-03-02T11:48:47.253Z,33.50
2024-03-02T11:49:47.261Z,33.48
2024-03-02T11:50:47.284Z,33.53
2024-03-02T11:51:47.362Z,33.56
2024-03-02T11:52:47.360Z,33.61
2024-03-02T11:53:47.390Z,33.51
2024-03-02T11:54:47.459Z,33.63
2024-03-02T11:55:47.863Z,33.73
2024-03-02T11:56:47.498Z,33.64
2024-03-02T11:57:47.564Z,33.62
2024-03-02T11:58:49.653Z,33.58
2024-03-02T11:59:47.575Z,33.67
2024-03-02T12:00:47.614Z,33.70
2024-03-02T12:01:47.600Z,33.65
2024-03-02T12:02:47.605Z,33.65
2024-03-02T12:03:47.587Z,33.65
2024-03-02T12:04:47.559Z,33.74
2024-03-02T12:05:47.564Z,33.72
2024-03-02T12:06:47.587Z,33.70
2024-03-02T12:07:47.563Z,33.69
2024-03-02T12:08:47.570Z,33.65
2024-03-02T12:09:47.601Z,33.81
2024-03-02T12:10:47.587Z,33.77
2024-03-02T12:11:47.603Z,33.75
2024-03-02T12:12:47.584Z,33.70
2024-03-02T12:13:47.579Z,33.70
2024-03-02T12:14:47.582Z,33.68
2024-03-02T12:15:47.602Z,33.72
2024-03-02T12:16:47.596Z,33.78
2024-03-02T12:17:47.666Z,33.75
2024-03-02T12:18:47.681Z,33.77
2024-03-02T12:19:47.615Z,33.78
2024-03-02T12:20:47.572Z,33.81
2024-03-02T12:21:47.615Z,33.78
2024-03-02T12:22:47.590Z,33.82
2024-03-02T12:23:47.573Z,33.88
2024-03-02T12:24:47.684Z,33.86
2024-03-02T12:25:47.654Z,33.89
2024-03-02T12:26:47.591Z,33.91
2024-03-02T12:27:47.678Z,33.82
2024-03-02T12:28:47.584Z,33.91
2024-03-02T12:29:47.595Z,33.91
2024-03-02T12:30:47.610Z,33.82
2024-03-02T12:31:47.630Z,33.78
2024-03-02T12:32:47.603Z,33.87
2024-03-02T12:33:47.696Z,33.79
2024-03-02T12:34:47.662Z,33.91
2024-03-02T12:35:47.612Z,33.85
2024-03-02T12:36:47.649Z,33.94
2024-03-02T12:37:47.614Z,33.96
2024-03-02T12:38:47.682Z,33.95
2024-03-02T12:39:47.734Z,34.05
2024-03-02T12:40:47.660Z,34.16
2024-03-02T12:41:47.605Z,34.14
2024-03-02T12:42:47.630Z,34.28
2024-03-02T12:43:47.607Z,34.08
2024-03-02T12:44:47.626Z,34.15
2024-03-02T12:45:47.662Z,34.05
2024-03-02T12:46:47.641Z,34.13
2024-03-02T12:47:47.620Z,34.18
2024-03-02T12:48:47.667Z,34.29
2024-03-02T12:49:47.622Z,34.44
2024-03-02T12:50:47.625Z,34.34
2024-03-02T12:51:47.644Z,34.15
2024-03-02T12:52:47.634Z,34.27
2024-03-02T12:53:47.643Z,34.42
2024-03-02T12:54:47.690Z,34.46